sensor_id;sensor_type;location;lat;lon;timestamp;P1;durP1;ratioP1;P2;durP2;ratioP2
60306;SDS011;46155;52.364;6.580;2022-09-12T03:00:28;25.73;;;21.90;;
60306;SDS011;46155;52.364;6.580;2022-09-12T03:03:16;32.73;;;22.60;;
60306;SDS011;46155;52.364;6.580;2022-09-12T03:14:04;30.20;;;22.57;;
60306;SDS011;46155;52.364;6.580;2022-09-12T03:16:51;28.47;;;24.20;;
60306;SDS011;46155;52.364;6.580;2022-09-12T03:27:05;31.00;;;24.40;;
60306;SDS011;46155;52.364;6.580;2022-09-12T03:29:40;31.13;;;23.17;;
60306;SDS011;46155;52.364;6.580;2022-09-12T03:32:08;31.00;;;24.13;;
60306;SDS011;46155;52.364;6.580;2022-09-12T03:34:33;33.10;;;23.60;;
60306;SDS011;46155;52.364;6.580;2022-09-12T03:36:59;32.17;;;24.60;;
60306;SDS011;46155;52.364;6.580;2022-09-12T03:39:24;29.87;;;23.50;;
60306;SDS011;46155;52.364;6.580;2022-09-12T03:41:51;33.37;;;23.70;;
60306;SDS011;46155;52.364;6.580;2022-09-12T03:44:17;27.90;;;22.83;;
60306;SDS011;46155;52.364;6.580;2022-09-12T03:46:43;31.13;;;23.67;;
60306;SDS011;46155;52.364;6.580;2022-09-12T03:49:09;32.57;;;24.80;;
60306;SDS011;46155;52.364;6.580;2022-09-12T03:51:35;28.60;;;22.93;;
60306;SDS011;46155;52.364;6.580;2022-09-12T03:54:00;29.70;;;24.73;;
60306;SDS011;46155;52.364;6.580;2022-09-12T03:56:26;29.23;;;22.70;;
60306;SDS011;46155;52.364;6.580;2022-09-12T03:58:51;30.67;;;23.53;;
60306;SDS011;46155;52.364;6.580;2022-09-12T04:01:17;28.80;;;22.70;;
60306;SDS011;46155;52.364;6.580;2022-09-12T04:03:43;30.77;;;21.90;;
60306;SDS011;46155;52.364;6.580;2022-09-12T04:06:11;32.20;;;23.83;;
60306;SDS011;46155;52.364;6.580;2022-09-12T04:08:38;29.83;;;23.20;;
60306;SDS011;46155;52.364;6.580;2022-09-12T04:11:11;28.03;;;20.20;;
60306;SDS011;46155;52.364;6.580;2022-09-12T04:13:39;32.03;;;23.13;;
60306;SDS011;46155;52.364;6.580;2022-09-12T04:16:05;31.47;;;23.60;;
60306;SDS011;46155;52.364;6.580;2022-09-12T04:18:31;29.93;;;24.07;;
60306;SDS011;46155;52.364;6.580;2022-09-12T04:20:57;32.53;;;24.27;;
60306;SDS011;46155;52.364;6.580;2022-09-12T04:23:23;29.10;;;22.90;;
60306;SDS011;46155;52.364;6.580;2022-09-12T04:25:54;30.07;;;23.73;;
60306;SDS011;46155;52.364;6.580;2022-09-12T04:28:21;31.43;;;23.23;;
60306;SDS011;46155;52.364;6.580;2022-09-12T04:30:47;27.77;;;23.53;;
60306;SDS011;46155;52.364;6.580;2022-09-12T04:33:13;32.43;;;24.03;;
60306;SDS011;46155;52.364;6.580;2022-09-12T04:35:39;30.07;;;24.03;;
60306;SDS011;46155;52.364;6.580;2022-09-12T04:38:05;31.73;;;23.10;;
60306;SDS011;46155;52.364;6.580;2022-09-12T04:40:31;29.53;;;22.20;;
60306;SDS011;46155;52.364;6.580;2022-09-12T04:42:57;29.67;;;22.77;;
60306;SDS011;46155;52.364;6.580;2022-09-12T04:45:22;31.47;;;23.97;;
60306;SDS011;46155;52.364;6.580;2022-09-12T04:47:48;31.70;;;24.90;;
60306;SDS011;46155;52.364;6.580;2022-09-12T04:50:13;33.83;;;23.13;;
60306;SDS011;46155;52.364;6.580;2022-09-12T04:52:39;29.07;;;23.07;;
60306;SDS011;46155;52.364;6.580;2022-09-12T04:55:05;31.57;;;21.57;;
60306;SDS011;46155;52.364;6.580;2022-09-12T04:57:31;27.37;;;20.90;;
60306;SDS011;46155;52.364;6.580;2022-09-12T04:59:56;26.57;;;21.03;;
60306;SDS011;46155;52.364;6.580;2022-09-12T05:02:22;29.17;;;20.03;;
60306;SDS011;46155;52.364;6.580;2022-09-12T05:04:47;32.60;;;21.50;;
60306;SDS011;46155;52.364;6.580;2022-09-12T05:07:13;26.80;;;19.37;;
60306;SDS011;46155;52.364;6.580;2022-09-12T05:09:38;28.13;;;20.37;;
60306;SDS011;46155;52.364;6.580;2022-09-12T05:12:03;29.90;;;19.80;;
60306;SDS011;46155;52.364;6.580;2022-09-12T05:14:29;32.90;;;20.83;;
60306;SDS011;46155;52.364;6.580;2022-09-12T05:16:56;28.70;;;20.00;;
60306;SDS011;46155;52.364;6.580;2022-09-12T05:19:24;26.57;;;19.47;;
60306;SDS011;46155;52.364;6.580;2022-09-12T05:21:50;30.53;;;20.90;;
60306;SDS011;46155;52.364;6.580;2022-09-12T05:24:15;35.07;;;20.53;;
60306;SDS011;46155;52.364;6.580;2022-09-12T05:26:40;33.63;;;21.60;;
60306;SDS011;46155;52.364;6.580;2022-09-12T05:29:06;32.40;;;20.43;;
60306;SDS011;46155;52.364;6.580;2022-09-12T05:31:31;26.73;;;20.33;;
60306;SDS011;46155;52.364;6.580;2022-09-12T05:33:56;25.33;;;19.60;;
60306;SDS011;46155;52.364;6.580;2022-09-12T05:36:28;27.77;;;19.97;;
60306;SDS011;46155;52.364;6.580;2022-09-12T05:38:54;30.77;;;21.17;;
60306;SDS011;46155;52.364;6.580;2022-09-12T05:41:24;28.23;;;20.73;;
60306;SDS011;46155;52.364;6.580;2022-09-12T05:43:51;31.93;;;22.50;;
60306;SDS011;46155;52.364;6.580;2022-09-12T05:46:19;29.47;;;20.57;;
60306;SDS011;46155;52.364;6.580;2022-09-12T05:48:46;28.97;;;21.47;;
60306;SDS011;46155;52.364;6.580;2022-09-12T05:51:13;30.27;;;22.80;;
60306;SDS011;46155;52.364;6.580;2022-09-12T05:53:43;35.00;;;23.93;;
60306;SDS011;46155;52.364;6.580;2022-09-12T05:56:10;37.27;;;24.30;;
60306;SDS011;46155;52.364;6.580;2022-09-12T05:58:38;35.07;;;24.23;;
60306;SDS011;46155;52.364;6.580;2022-09-12T06:01:06;34.20;;;24.27;;
60306;SDS011;46155;52.364;6.580;2022-09-12T06:03:34;37.07;;;25.53;;
60306;SDS011;46155;52.364;6.580;2022-09-12T06:06:03;35.80;;;22.90;;
60306;SDS011;46155;52.364;6.580;2022-09-12T06:08:30;36.27;;;24.77;;
60306;SDS011;46155;52.364;6.580;2022-09-12T06:10:58;39.53;;;25.80;;
60306;SDS011;46155;52.364;6.580;2022-09-12T06:13:24;35.33;;;26.07;;
60306;SDS011;46155;52.364;6.580;2022-09-12T06:15:49;33.33;;;24.50;;
60306;SDS011;46155;52.364;6.580;2022-09-12T06:18:15;44.73;;;24.53;;
60306;SDS011;46155;52.364;6.580;2022-09-12T06:20:40;34.90;;;26.07;;
60306;SDS011;46155;52.364;6.580;2022-09-12T06:23:05;38.97;;;26.50;;
60306;SDS011;46155;52.364;6.580;2022-09-12T06:25:31;41.33;;;25.50;;
60306;SDS011;46155;52.364;6.580;2022-09-12T06:27:56;38.30;;;26.40;;
60306;SDS011;46155;52.364;6.580;2022-09-12T06:30:21;41.27;;;25.37;;
60306;SDS011;46155;52.364;6.580;2022-09-12T06:32:46;45.20;;;27.80;;
60306;SDS011;46155;52.364;6.580;2022-09-12T06:35:12;39.00;;;26.57;;
60306;SDS011;46155;52.364;6.580;2022-09-12T06:37:37;39.67;;;26.90;;
60306;SDS011;46155;52.364;6.580;2022-09-12T06:40:03;38.57;;;26.20;;
60306;SDS011;46155;52.364;6.580;2022-09-12T06:42:28;38.13;;;25.87;;
60306;SDS011;46155;52.364;6.580;2022-09-12T06:44:53;36.33;;;27.00;;
60306;SDS011;46155;52.364;6.580;2022-09-12T06:47:19;37.20;;;25.27;;
60306;SDS011;46155;52.364;6.580;2022-09-12T06:49:45;38.47;;;27.70;;
60306;SDS011;46155;52.364;6.580;2022-09-12T06:52:10;44.97;;;27.80;;
60306;SDS011;46155;52.364;6.580;2022-09-12T06:54:35;40.37;;;28.83;;
60306;SDS011;46155;52.364;6.580;2022-09-12T06:57:00;42.87;;;28.40;;
60306;SDS011;46155;52.364;6.580;2022-09-12T06:59:26;46.90;;;27.50;;
60306;SDS011;46155;52.364;6.580;2022-09-12T07:01:51;47.30;;;28.60;;
60306;SDS011;46155;52.364;6.580;2022-09-12T07:04:16;43.37;;;29.30;;
60306;SDS011;46155;52.364;6.580;2022-09-12T07:06:42;48.50;;;29.57;;
60306;SDS011;46155;52.364;6.580;2022-09-12T07:09:10;48.03;;;30.10;;
60306;SDS011;46155;52.364;6.580;2022-09-12T07:11:37;39.67;;;29.30;;
60306;SDS011;46155;52.364;6.580;2022-09-12T07:14:05;44.77;;;31.07;;
60306;SDS011;46155;52.364;6.580;2022-09-12T07:16:33;44.73;;;30.63;;
60306;SDS011;46155;52.364;6.580;2022-09-12T07:19:00;44.90;;;29.63;;
60306;SDS011;46155;52.364;6.580;2022-09-12T07:21:27;44.63;;;27.60;;
60306;SDS011;46155;52.364;6.580;2022-09-12T07:23:53;52.67;;;30.50;;
60306;SDS011;46155;52.364;6.580;2022-09-12T07:26:20;42.17;;;29.77;;
60306;SDS011;46155;52.364;6.580;2022-09-12T07:28:49;45.20;;;28.93;;
60306;SDS011;46155;52.364;6.580;2022-09-12T07:31:17;42.90;;;27.33;;
60306;SDS011;46155;52.364;6.580;2022-09-12T07:33:44;48.13;;;28.13;;
60306;SDS011;46155;52.364;6.580;2022-09-12T07:36:10;44.70;;;30.17;;
60306;SDS011;46155;52.364;6.580;2022-09-12T07:38:38;51.93;;;30.03;;
60306;SDS011;46155;52.364;6.580;2022-09-12T07:41:10;52.03;;;29.07;;
60306;SDS011;46155;52.364;6.580;2022-09-12T07:43:40;46.13;;;26.67;;
60306;SDS011;46155;52.364;6.580;2022-09-12T07:46:06;45.57;;;29.30;;
60306;SDS011;46155;52.364;6.580;2022-09-12T07:48:32;44.57;;;28.03;;
60306;SDS011;46155;52.364;6.580;2022-09-12T07:51:02;39.47;;;24.70;;
60306;SDS011;46155;52.364;6.580;2022-09-12T07:53:30;45.53;;;27.67;;
60306;SDS011;46155;52.364;6.580;2022-09-12T07:55:57;51.40;;;29.20;;
60306;SDS011;46155;52.364;6.580;2022-09-12T07:58:23;42.70;;;27.33;;
60306;SDS011;46155;52.364;6.580;2022-09-12T08:00:49;51.63;;;29.63;;
60306;SDS011;46155;52.364;6.580;2022-09-12T08:03:14;54.57;;;29.30;;
60306;SDS011;46155;52.364;6.580;2022-09-12T08:05:39;45.83;;;26.23;;
60306;SDS011;46155;52.364;6.580;2022-09-12T08:08:05;45.40;;;27.80;;
60306;SDS011;46155;52.364;6.580;2022-09-12T08:10:30;44.40;;;27.10;;
60306;SDS011;46155;52.364;6.580;2022-09-12T08:12:56;46.27;;;29.63;;
60306;SDS011;46155;52.364;6.580;2022-09-12T08:15:22;48.57;;;28.70;;
60306;SDS011;46155;52.364;6.580;2022-09-12T08:17:48;43.80;;;26.20;;
60306;SDS011;46155;52.364;6.580;2022-09-12T08:20:13;42.70;;;25.57;;
60306;SDS011;46155;52.364;6.580;2022-09-12T08:22:38;40.23;;;26.13;;
60306;SDS011;46155;52.364;6.580;2022-09-12T08:25:05;38.07;;;26.00;;
60306;SDS011;46155;52.364;6.580;2022-09-12T08:27:30;47.43;;;27.30;;
60306;SDS011;46155;52.364;6.580;2022-09-12T08:29:56;40.73;;;26.17;;
60306;SDS011;46155;52.364;6.580;2022-09-12T08:32:21;41.00;;;24.90;;
60306;SDS011;46155;52.364;6.580;2022-09-12T08:34:46;35.07;;;24.37;;
60306;SDS011;46155;52.364;6.580;2022-09-12T08:37:12;39.73;;;24.60;;
60306;SDS011;46155;52.364;6.580;2022-09-12T08:39:37;43.30;;;23.97;;
60306;SDS011;46155;52.364;6.580;2022-09-12T08:42:03;33.00;;;23.07;;
60306;SDS011;46155;52.364;6.580;2022-09-12T08:47:32;41.97;;;24.33;;
60306;SDS011;46155;52.364;6.580;2022-09-12T08:55:26;33.53;;;21.10;;
60306;SDS011;46155;52.364;6.580;2022-09-12T08:57:57;35.47;;;21.23;;
60306;SDS011;46155;52.364;6.580;2022-09-12T09:00:27;41.10;;;21.80;;
60306;SDS011;46155;52.364;6.580;2022-09-12T09:05:50;38.97;;;22.37;;
60306;SDS011;46155;52.364;6.580;2022-09-12T09:08:34;35.93;;;22.93;;
60306;SDS011;46155;52.364;6.580;2022-09-12T09:11:25;34.30;;;21.20;;
60306;SDS011;46155;52.364;6.580;2022-09-12T09:14:30;33.33;;;20.53;;
60306;SDS011;46155;52.364;6.580;2022-09-12T09:17:31;39.57;;;20.43;;
60306;SDS011;46155;52.364;6.580;2022-09-12T09:20:14;28.90;;;19.03;;
60306;SDS011;46155;52.364;6.580;2022-09-12T09:22:51;30.07;;;20.03;;
60306;SDS011;46155;52.364;6.580;2022-09-12T09:25:23;31.10;;;21.13;;
60306;SDS011;46155;52.364;6.580;2022-09-12T09:28:00;30.33;;;19.87;;
60306;SDS011;46155;52.364;6.580;2022-09-12T09:30:31;34.97;;;20.67;;
60306;SDS011;46155;52.364;6.580;2022-09-12T09:32:59;34.03;;;20.20;;
60306;SDS011;46155;52.364;6.580;2022-09-12T09:35:47;35.77;;;21.00;;
60306;SDS011;46155;52.364;6.580;2022-09-12T09:38:24;35.50;;;20.57;;
60306;SDS011;46155;52.364;6.580;2022-09-12T09:41:07;30.40;;;20.63;;
60306;SDS011;46155;52.364;6.580;2022-09-12T09:43:36;36.17;;;21.07;;
60306;SDS011;46155;52.364;6.580;2022-09-12T09:46:02;32.90;;;20.10;;
60306;SDS011;46155;52.364;6.580;2022-09-12T09:50:59;33.20;;;20.13;;
60306;SDS011;46155;52.364;6.580;2022-09-12T09:56:10;37.37;;;21.30;;
60306;SDS011;46155;52.364;6.580;2022-09-12T09:58:47;27.50;;;19.43;;
60306;SDS011;46155;52.364;6.580;2022-09-12T10:01:15;36.33;;;20.97;;
60306;SDS011;46155;52.364;6.580;2022-09-12T10:03:51;30.83;;;19.23;;
60306;SDS011;46155;52.364;6.580;2022-09-12T10:08:43;34.73;;;18.77;;
60306;SDS011;46155;52.364;6.580;2022-09-12T10:16:16;31.30;;;18.43;;
60306;SDS011;46155;52.364;6.580;2022-09-12T10:18:43;27.53;;;17.87;;
60306;SDS011;46155;52.364;6.580;2022-09-12T10:21:47;38.37;;;17.40;;
60306;SDS011;46155;52.364;6.580;2022-09-12T10:24:21;25.97;;;15.40;;
60306;SDS011;46155;52.364;6.580;2022-09-12T10:26:51;25.73;;;16.37;;
60306;SDS011;46155;52.364;6.580;2022-09-12T10:29:39;26.93;;;16.87;;
60306;SDS011;46155;52.364;6.580;2022-09-12T10:32:09;27.87;;;16.63;;
60306;SDS011;46155;52.364;6.580;2022-09-12T10:34:39;23.37;;;15.43;;
60306;SDS011;46155;52.364;6.580;2022-09-12T10:37:08;24.53;;;15.80;;
60306;SDS011;46155;52.364;6.580;2022-09-12T10:39:40;27.07;;;16.93;;
60306;SDS011;46155;52.364;6.580;2022-09-12T10:42:17;23.37;;;14.80;;
60306;SDS011;46155;52.364;6.580;2022-09-12T10:45:02;26.07;;;14.83;;
60306;SDS011;46155;52.364;6.580;2022-09-12T10:47:28;23.33;;;15.30;;
60306;SDS011;46155;52.364;6.580;2022-09-12T10:50:01;20.47;;;14.37;;
60306;SDS011;46155;52.364;6.580;2022-09-12T10:52:43;23.47;;;14.47;;
60306;SDS011;46155;52.364;6.580;2022-09-12T10:55:15;20.43;;;13.87;;
60306;SDS011;46155;52.364;6.580;2022-09-12T10:58:14;20.60;;;14.87;;
60306;SDS011;46155;52.364;6.580;2022-09-12T11:00:54;17.17;;;13.70;;
60306;SDS011;46155;52.364;6.580;2022-09-12T11:06:18;19.07;;;13.27;;
60306;SDS011;46155;52.364;6.580;2022-09-12T11:12:07;21.80;;;14.77;;
60306;SDS011;46155;52.364;6.580;2022-09-12T11:25:51;13.90;;;11.13;;
60306;SDS011;46155;52.364;6.580;2022-09-12T11:28:34;17.50;;;12.67;;
60306;SDS011;46155;52.364;6.580;2022-09-12T11:37:00;13.57;;;11.37;;
60306;SDS011;46155;52.364;6.580;2022-09-12T11:39:29;12.27;;;10.93;;
60306;SDS011;46155;52.364;6.580;2022-09-12T11:42:03;15.43;;;11.47;;
60306;SDS011;46155;52.364;6.580;2022-09-12T11:44:35;11.97;;;10.30;;
60306;SDS011;46155;52.364;6.580;2022-09-12T11:47:05;10.93;;;9.83;;
60306;SDS011;46155;52.364;6.580;2022-09-12T11:49:35;11.00;;;10.10;;
60306;SDS011;46155;52.364;6.580;2022-09-12T11:52:18;14.03;;;11.07;;
60306;SDS011;46155;52.364;6.580;2022-09-12T11:54:51;13.07;;;10.73;;
60306;SDS011;46155;52.364;6.580;2022-09-12T11:57:38;10.83;;;9.73;;
60306;SDS011;46155;52.364;6.580;2022-09-12T12:02:37;12.60;;;10.27;;
60306;SDS011;46155;52.364;6.580;2022-09-12T12:05:14;14.43;;;10.33;;
60306;SDS011;46155;52.364;6.580;2022-09-12T12:07:51;14.20;;;9.73;;
60306;SDS011;46155;52.364;6.580;2022-09-12T12:10:23;11.97;;;10.40;;
60306;SDS011;46155;52.364;6.580;2022-09-12T12:12:56;9.80;;;8.90;;
60306;SDS011;46155;52.364;6.580;2022-09-12T12:15:24;10.63;;;9.40;;
60306;SDS011;46155;52.364;6.580;2022-09-12T12:20:38;10.90;;;8.30;;
60306;SDS011;46155;52.364;6.580;2022-09-12T12:23:04;11.30;;;9.63;;
60306;SDS011;46155;52.364;6.580;2022-09-12T12:25:37;10.97;;;9.60;;
60306;SDS011;46155;52.364;6.580;2022-09-12T12:28:05;11.40;;;10.33;;
60306;SDS011;46155;52.364;6.580;2022-09-12T12:38:00;10.17;;;9.13;;
60306;SDS011;46155;52.364;6.580;2022-09-12T12:40:26;10.10;;;8.20;;
60306;SDS011;46155;52.364;6.580;2022-09-12T12:43:03;9.30;;;8.27;;
60306;SDS011;46155;52.364;6.580;2022-09-12T12:48:08;9.80;;;8.80;;
60306;SDS011;46155;52.364;6.580;2022-09-12T12:50:37;9.23;;;8.33;;
60306;SDS011;46155;52.364;6.580;2022-09-12T12:53:04;8.90;;;8.10;;
60306;SDS011;46155;52.364;6.580;2022-09-12T12:58:07;9.40;;;8.50;;
60306;SDS011;46155;52.364;6.580;2022-09-12T13:01:14;9.00;;;8.20;;
60306;SDS011;46155;52.364;6.580;2022-09-12T13:03:45;8.40;;;7.80;;
60306;SDS011;46155;52.364;6.580;2022-09-12T13:06:28;8.13;;;7.50;;
60306;SDS011;46155;52.364;6.580;2022-09-12T13:11:59;7.97;;;7.27;;
60306;SDS011;46155;52.364;6.580;2022-09-12T13:17:06;8.60;;;7.90;;
60306;SDS011;46155;52.364;6.580;2022-09-12T13:19:42;10.00;;;7.60;;
60306;SDS011;46155;52.364;6.580;2022-09-12T13:22:08;9.47;;;8.60;;
60306;SDS011;46155;52.364;6.580;2022-09-12T13:24:47;8.90;;;8.20;;
60306;SDS011;46155;52.364;6.580;2022-09-12T13:27:20;9.47;;;8.57;;
60306;SDS011;46155;52.364;6.580;2022-09-12T13:29:47;8.13;;;7.53;;
60306;SDS011;46155;52.364;6.580;2022-09-12T13:32:12;8.93;;;7.10;;
60306;SDS011;46155;52.364;6.580;2022-09-12T13:40:52;8.57;;;7.77;;
60306;SDS011;46155;52.364;6.580;2022-09-12T13:43:38;9.40;;;7.73;;
60306;SDS011;46155;52.364;6.580;2022-09-12T13:46:06;10.37;;;8.53;;
60306;SDS011;46155;52.364;6.580;2022-09-12T13:48:37;8.83;;;8.03;;
60306;SDS011;46155;52.364;6.580;2022-09-12T13:51:03;9.03;;;8.17;;
60306;SDS011;46155;52.364;6.580;2022-09-12T13:53:41;8.83;;;7.70;;
60306;SDS011;46155;52.364;6.580;2022-09-12T13:56:14;8.47;;;7.67;;
60306;SDS011;46155;52.364;6.580;2022-09-12T13:58:58;7.50;;;6.90;;
60306;SDS011;46155;52.364;6.580;2022-09-12T14:01:39;7.23;;;6.63;;
60306;SDS011;46155;52.364;6.580;2022-09-12T14:04:28;7.87;;;7.00;;
60306;SDS011;46155;52.364;6.580;2022-09-12T14:07:19;8.13;;;7.40;;
60306;SDS011;46155;52.364;6.580;2022-09-12T14:09:53;7.27;;;6.67;;
60306;SDS011;46155;52.364;6.580;2022-09-12T14:12:24;6.73;;;6.23;;
60306;SDS011;46155;52.364;6.580;2022-09-12T14:14:53;9.17;;;7.50;;
60306;SDS011;46155;52.364;6.580;2022-09-12T14:17:23;8.27;;;7.47;;
60306;SDS011;46155;52.364;6.580;2022-09-12T14:19:53;7.60;;;6.97;;
60306;SDS011;46155;52.364;6.580;2022-09-12T14:22:23;14.40;;;7.57;;
60306;SDS011;46155;52.364;6.580;2022-09-12T14:24:51;8.00;;;6.73;;
60306;SDS011;46155;52.364;6.580;2022-09-12T14:27:27;8.37;;;6.43;;
60306;SDS011;46155;52.364;6.580;2022-09-12T14:30:04;7.43;;;6.27;;
60306;SDS011;46155;52.364;6.580;2022-09-12T14:33:00;7.03;;;6.40;;
60306;SDS011;46155;52.364;6.580;2022-09-12T14:35:27;7.07;;;6.47;;
60306;SDS011;46155;52.364;6.580;2022-09-12T14:37:52;8.43;;;6.97;;
60306;SDS011;46155;52.364;6.580;2022-09-12T14:40:19;6.90;;;6.40;;
60306;SDS011;46155;52.364;6.580;2022-09-12T14:42:48;7.10;;;6.60;;
60306;SDS011;46155;52.364;6.580;2022-09-12T14:45:26;7.80;;;7.10;;
60306;SDS011;46155;52.364;6.580;2022-09-12T14:47:54;7.43;;;6.93;;
60306;SDS011;46155;52.364;6.580;2022-09-12T14:50:23;6.60;;;6.10;;
60306;SDS011;46155;52.364;6.580;2022-09-12T14:53:04;7.23;;;6.73;;
60306;SDS011;46155;52.364;6.580;2022-09-12T14:55:32;6.33;;;5.93;;
60306;SDS011;46155;52.364;6.580;2022-09-12T15:08:59;7.70;;;7.07;;
60306;SDS011;46155;52.364;6.580;2022-09-12T15:11:26;9.27;;;7.53;;
60306;SDS011;46155;52.364;6.580;2022-09-12T15:13:52;8.23;;;7.47;;
60306;SDS011;46155;52.364;6.580;2022-09-12T15:16:17;7.47;;;6.87;;
60306;SDS011;46155;52.364;6.580;2022-09-12T15:18:43;7.53;;;6.97;;
60306;SDS011;46155;52.364;6.580;2022-09-12T15:21:12;7.10;;;6.60;;
60306;SDS011;46155;52.364;6.580;2022-09-12T15:23:43;7.13;;;6.63;;
60306;SDS011;46155;52.364;6.580;2022-09-12T15:26:12;7.90;;;7.20;;
60306;SDS011;46155;52.364;6.580;2022-09-12T15:28:42;7.77;;;6.60;;
60306;SDS011;46155;52.364;6.580;2022-09-12T15:33:56;7.23;;;6.60;;
60306;SDS011;46155;52.364;6.580;2022-09-12T15:36:24;6.80;;;6.30;;
60306;SDS011;46155;52.364;6.580;2022-09-12T15:38:50;7.37;;;6.57;;
60306;SDS011;46155;52.364;6.580;2022-09-12T15:41:20;7.53;;;6.33;;
60306;SDS011;46155;52.364;6.580;2022-09-12T15:43:48;7.93;;;7.23;;
60306;SDS011;46155;52.364;6.580;2022-09-12T15:46:15;7.70;;;7.00;;
60306;SDS011;46155;52.364;6.580;2022-09-12T15:48:41;6.90;;;6.30;;
60306;SDS011;46155;52.364;6.580;2022-09-12T15:51:14;9.33;;;6.47;;
60306;SDS011;46155;52.364;6.580;2022-09-12T15:53:43;7.63;;;7.03;;
60306;SDS011;46155;52.364;6.580;2022-09-12T15:56:09;6.90;;;6.30;;
60306;SDS011;46155;52.364;6.580;2022-09-12T15:58:35;9.97;;;6.67;;
60306;SDS011;46155;52.364;6.580;2022-09-12T16:01:01;7.13;;;6.50;;
60306;SDS011;46155;52.364;6.580;2022-09-12T16:03:28;7.33;;;6.73;;
60306;SDS011;46155;52.364;6.580;2022-09-12T16:05:54;8.27;;;7.53;;
60306;SDS011;46155;52.364;6.580;2022-09-12T16:08:21;7.47;;;6.93;;
60306;SDS011;46155;52.364;6.580;2022-09-12T16:10:46;6.73;;;6.23;;
60306;SDS011;46155;52.364;6.580;2022-09-12T16:13:16;7.37;;;6.70;;
60306;SDS011;46155;52.364;6.580;2022-09-12T16:15:41;7.33;;;6.63;;
60306;SDS011;46155;52.364;6.580;2022-09-12T16:18:07;7.07;;;6.40;;
60306;SDS011;46155;52.364;6.580;2022-09-12T16:20:32;6.60;;;6.00;;
60306;SDS011;46155;52.364;6.580;2022-09-12T16:22:57;6.50;;;6.00;;
60306;SDS011;46155;52.364;6.580;2022-09-12T16:25:23;7.27;;;6.53;;
60306;SDS011;46155;52.364;6.580;2022-09-12T16:27:49;6.97;;;6.40;;
60306;SDS011;46155;52.364;6.580;2022-09-12T16:30:14;6.53;;;6.13;;
60306;SDS011;46155;52.364;6.580;2022-09-12T16:32:39;7.00;;;6.50;;
60306;SDS011;46155;52.364;6.580;2022-09-12T16:35:05;7.13;;;6.63;;
60306;SDS011;46155;52.364;6.580;2022-09-12T16:37:31;7.03;;;6.53;;
60306;SDS011;46155;52.364;6.580;2022-09-12T16:39:58;7.73;;;7.13;;
60306;SDS011;46155;52.364;6.580;2022-09-12T16:42:24;7.20;;;6.70;;
60306;SDS011;46155;52.364;6.580;2022-09-12T16:44:49;8.57;;;7.40;;
60306;SDS011;46155;52.364;6.580;2022-09-12T16:47:15;8.10;;;7.50;;
60306;SDS011;46155;52.364;6.580;2022-09-12T16:49:40;7.03;;;6.53;;
60306;SDS011;46155;52.364;6.580;2022-09-12T16:52:05;8.00;;;7.20;;
60306;SDS011;46155;52.364;6.580;2022-09-12T16:54:31;8.27;;;7.57;;
60306;SDS011;46155;52.364;6.580;2022-09-12T16:56:56;7.70;;;7.10;;
60306;SDS011;46155;52.364;6.580;2022-09-12T16:59:21;8.43;;;7.77;;
60306;SDS011;46155;52.364;6.580;2022-09-12T17:01:47;7.67;;;7.03;;
60306;SDS011;46155;52.364;6.580;2022-09-12T17:04:12;7.40;;;6.80;;
60306;SDS011;46155;52.364;6.580;2022-09-12T17:06:38;7.13;;;6.60;;
60306;SDS011;46155;52.364;6.580;2022-09-12T17:09:03;7.67;;;7.10;;
60306;SDS011;46155;52.364;6.580;2022-09-12T17:11:31;7.23;;;6.73;;
60306;SDS011;46155;52.364;6.580;2022-09-12T17:13:58;8.80;;;7.40;;
60306;SDS011;46155;52.364;6.580;2022-09-12T17:16:25;7.50;;;6.90;;
60306;SDS011;46155;52.364;6.580;2022-09-12T17:18:52;8.50;;;7.73;;
60306;SDS011;46155;52.364;6.580;2022-09-12T17:21:18;7.80;;;7.20;;
60306;SDS011;46155;52.364;6.580;2022-09-12T17:23:45;7.57;;;6.87;;
60306;SDS011;46155;52.364;6.580;2022-09-12T17:26:10;7.37;;;5.80;;
60306;SDS011;46155;52.364;6.580;2022-09-12T17:28:37;7.73;;;7.03;;
60306;SDS011;46155;52.364;6.580;2022-09-12T17:31:04;7.10;;;6.50;;
60306;SDS011;46155;52.364;6.580;2022-09-12T17:33:32;7.70;;;7.03;;
60306;SDS011;46155;52.364;6.580;2022-09-12T17:36:01;10.77;;;7.17;;
60306;SDS011;46155;52.364;6.580;2022-09-12T17:38:29;7.90;;;7.30;;
60306;SDS011;46155;52.364;6.580;2022-09-12T17:41:02;7.80;;;7.10;;
60306;SDS011;46155;52.364;6.580;2022-09-12T17:43:29;8.37;;;7.67;;
60306;SDS011;46155;52.364;6.580;2022-09-12T17:45:55;8.07;;;7.37;;
60306;SDS011;46155;52.364;6.580;2022-09-12T17:48:21;8.17;;;7.47;;
60306;SDS011;46155;52.364;6.580;2022-09-12T17:50:46;8.47;;;7.77;;
60306;SDS011;46155;52.364;6.580;2022-09-12T17:53:12;8.00;;;7.50;;
60306;SDS011;46155;52.364;6.580;2022-09-12T17:55:38;7.47;;;6.87;;
60306;SDS011;46155;52.364;6.580;2022-09-12T17:58:04;9.13;;;8.20;;
60306;SDS011;46155;52.364;6.580;2022-09-12T18:00:30;7.97;;;7.33;;
60306;SDS011;46155;52.364;6.580;2022-09-12T18:03:14;7.90;;;7.30;;
60306;SDS011;46155;52.364;6.580;2022-09-12T18:05:44;8.13;;;7.43;;
60306;SDS011;46155;52.364;6.580;2022-09-12T18:08:27;8.17;;;7.47;;
60306;SDS011;46155;52.364;6.580;2022-09-12T18:10:52;8.83;;;8.03;;
60306;SDS011;46155;52.364;6.580;2022-09-12T18:13:18;9.33;;;8.43;;
60306;SDS011;46155;52.364;6.580;2022-09-12T18:15:43;9.50;;;8.67;;
60306;SDS011;46155;52.364;6.580;2022-09-12T18:18:08;10.60;;;9.60;;
60306;SDS011;46155;52.364;6.580;2022-09-12T18:20:33;10.23;;;9.33;;
60306;SDS011;46155;52.364;6.580;2022-09-12T18:22:59;10.30;;;9.43;;
60306;SDS011;46155;52.364;6.580;2022-09-12T18:25:24;11.73;;;10.63;;
60306;SDS011;46155;52.364;6.580;2022-09-12T18:27:50;10.43;;;9.53;;
60306;SDS011;46155;52.364;6.580;2022-09-12T18:30:15;10.70;;;9.80;;
60306;SDS011;46155;52.364;6.580;2022-09-12T18:32:43;9.27;;;8.57;;
60306;SDS011;46155;52.364;6.580;2022-09-12T18:35:09;10.57;;;9.67;;
60306;SDS011;46155;52.364;6.580;2022-09-12T18:37:35;10.37;;;9.47;;
60306;SDS011;46155;52.364;6.580;2022-09-12T18:40:01;11.23;;;10.07;;
60306;SDS011;46155;52.364;6.580;2022-09-12T18:42:26;9.97;;;9.07;;
60306;SDS011;46155;52.364;6.580;2022-09-12T18:44:51;11.67;;;10.40;;
60306;SDS011;46155;52.364;6.580;2022-09-12T18:47:17;13.00;;;9.67;;
60306;SDS011;46155;52.364;6.580;2022-09-12T18:49:42;11.50;;;10.40;;
60306;SDS011;46155;52.364;6.580;2022-09-12T18:52:07;10.47;;;9.57;;
60306;SDS011;46155;52.364;6.580;2022-09-12T18:54:33;10.93;;;9.93;;
60306;SDS011;46155;52.364;6.580;2022-09-12T18:56:59;10.63;;;9.83;;
60306;SDS011;46155;52.364;6.580;2022-09-12T18:59:25;10.87;;;9.87;;
60306;SDS011;46155;52.364;6.580;2022-09-12T19:01:50;10.30;;;9.50;;
60306;SDS011;46155;52.364;6.580;2022-09-12T19:04:16;10.67;;;9.67;;
60306;SDS011;46155;52.364;6.580;2022-09-12T19:06:42;11.07;;;10.17;;
60306;SDS011;46155;52.364;6.580;2022-09-12T19:09:11;11.37;;;9.90;;
60306;SDS011;46155;52.364;6.580;2022-09-12T19:11:38;12.03;;;10.30;;
60306;SDS011;46155;52.364;6.580;2022-09-12T19:14:06;11.20;;;10.23;;
60306;SDS011;46155;52.364;6.580;2022-09-12T19:16:31;11.27;;;10.17;;
60306;SDS011;46155;52.364;6.580;2022-09-12T19:18:57;11.30;;;10.43;;
60306;SDS011;46155;52.364;6.580;2022-09-12T19:21:24;12.47;;;10.20;;
60306;SDS011;46155;52.364;6.580;2022-09-12T19:24:03;10.77;;;9.77;;
60306;SDS011;46155;52.364;6.580;2022-09-12T19:26:31;10.90;;;9.57;;
60306;SDS011;46155;52.364;6.580;2022-09-12T19:28:57;11.33;;;10.37;;